Time;durP1;ratioP1;P1;durP2;ratioP2;P2;SDS_P1;SDS_P2;PMS_P1;PMS_P2;Temp;Humidity;BMP_temperature;BMP_pressure;BME280_temperature;BME280_humidity;BME280_pressure;Samples;Min_cycle;Max_cycle;Signal;HPM_P1;HPM_P2
2022/08/28 00:00:45;;;;;;;16.30;4.03;;;;;;;16.49;72.07;101728.88;5048073;28;20039;-74
2022/08/28 00:03:12;;;;;;;15.55;4.55;;;;;;;16.45;72.22;101734.69;5049847;28;20086;-74
2022/08/28 00:05:38;;;;;;;15.20;4.55;;;;;;;16.41;73.02;101736.78;5051061;28;20044;-74
2022/08/28 00:08:05;;;;;;;19.00;4.97;;;;;;;16.31;72.93;101734.00;5050578;28;20025;-74
2022/08/28 00:10:31;;;;;;;19.58;5.35;;;;;;;16.28;74.07;101739.66;5048192;28;20033;-73
2022/08/28 00:12:56;;;;;;;14.57;4.60;;;;;;;16.22;73.36;101740.19;5048600;28;20030;-73
2022/08/28 00:15:34;;;;;;;15.25;4.97;;;;;;;16.18;73.05;101738.69;5040497;28;20116;-73
2022/08/28 00:18:00;;;;;;;18.00;4.68;;;;;;;16.12;73.40;101739.22;5032853;28;20041;-73
2022/08/28 00:20:27;;;;;;;16.63;5.05;;;;;;;16.07;74.42;101745.03;5032768;28;20056;-73
2022/08/28 00:22:54;;;;;;;15.38;4.63;;;;;;;16.04;74.89;101739.88;5049802;28;20032;-73
2022/08/28 00:25:22;;;;;;;17.20;5.43;;;;;;;15.99;74.85;101748.38;5051647;28;20121;-73
2022/08/28 00:27:52;;;;;;;14.50;4.53;;;;;;;15.95;75.16;101730.63;5048792;28;20052;-73
2022/08/28 00:30:30;;;;;;;17.88;4.70;;;;;;;15.89;74.87;101742.84;5045947;28;20128;-73
2022/08/28 00:32:59;;;;;;;14.75;4.43;;;;;;;15.84;75.35;101744.19;5042184;28;20045;-74
2022/08/28 00:35:24;;;;;;;17.73;5.35;;;;;;;15.79;75.80;101741.03;5052456;28;20037;-74
2022/08/28 00:37:51;;;;;;;18.00;5.38;;;;;;;15.71;76.23;101742.47;5049452;28;20040;-73
2022/08/28 00:40:19;;;;;;;16.38;4.93;;;;;;;15.65;77.27;101751.09;5049360;28;20035;-74
2022/08/28 00:42:46;;;;;;;13.93;5.03;;;;;;;15.53;77.13;101749.34;5048418;28;20396;-74
2022/08/28 00:45:13;;;;;;;15.10;4.75;;;;;;;15.46;76.63;101756.25;5049910;28;20018;-74
2022/08/28 00:47:39;;;;;;;19.65;5.10;;;;;;;15.41;77.94;101747.63;5033539;28;20044;-74
2022/08/28 00:50:06;;;;;;;16.70;5.45;;;;;;;15.33;77.98;101749.09;5032256;28;20029;-73
2022/08/28 00:52:32;;;;;;;16.77;5.47;;;;;;;15.25;78.24;101748.84;5043833;28;20388;-73
2022/08/28 00:55:05;;;;;;;14.18;4.72;;;;;;;15.18;78.59;101750.31;5035572;28;20074;-74
2022/08/28 00:57:36;;;;;;;19.50;5.50;;;;;;;15.09;78.40;101756.44;5050986;28;20056;-74
2022/08/28 01:00:05;;;;;;;14.73;4.75;;;;;;;15.03;79.00;101755.09;5044475;28;20037;-73
2022/08/28 01:02:31;;;;;;;15.38;4.60;;;;;;;14.98;79.28;101754.59;5042025;28;20033;-73
2022/08/28 01:04:56;;;;;;;16.75;5.28;;;;;;;14.91;79.47;101756.91;5033907;28;20021;-74
2022/08/28 01:07:22;;;;;;;19.40;5.65;;;;;;;14.86;79.96;101759.09;5043340;28;20033;-73
2022/08/28 01:09:51;;;;;;;18.85;5.65;;;;;;;14.79;79.85;101764.13;5040145;28;20079;-74
2022/08/28 01:12:20;;;;;;;16.52;5.47;;;;;;;14.74;80.59;101769.00;5032078;28;20037;-73
2022/08/28 01:14:49;;;;;;;13.75;4.75;;;;;;;14.69;80.50;101771.22;5048886;28;20416;-73
2022/08/28 01:17:19;;;;;;;19.55;5.57;;;;;;;14.67;81.44;101763.22;5050116;28;20031;-73
2022/08/28 01:19:54;;;;;;;15.38;5.28;;;;;;;14.65;81.66;101767.00;5045493;28;20025;-73
2022/08/28 01:22:27;;;;;;;16.58;5.40;;;;;;;14.63;81.94;101767.13;5041271;28;20043;-73
2022/08/28 01:24:57;;;;;;;14.48;5.03;;;;;;;14.58;81.63;101763.00;5050206;28;20035;-73
2022/08/28 01:27:23;;;;;;;19.08;5.30;;;;;;;14.56;81.52;101762.28;5051151;28;20040;-73
2022/08/28 01:29:49;;;;;;;22.50;5.80;;;;;;;14.56;81.64;101756.88;5047189;28;20024;-73
2022/08/28 01:32:36;;;;;;;18.60;5.18;;;;;;;14.58;81.25;101758.44;5047794;28;20078;-73
2022/08/28 01:35:03;;;;;;;23.27;5.93;;;;;;;14.55;82.43;101766.81;5034153;28;20128;-73
2022/08/28 01:37:29;;;;;;;18.88;5.97;;;;;;;14.56;81.66;101767.69;5035878;28;20473;-73
2022/08/28 01:39:54;;;;;;;18.15;5.80;;;;;;;14.56;82.30;101771.25;5048150;28;20025;-73
2022/08/28 01:42:20;;;;;;;19.92;5.55;;;;;;;14.56;82.03;101768.53;5033740;28;20040;-74
2022/08/28 01:44:46;;;;;;;21.05;5.22;;;;;;;14.58;82.13;101774.69;5044225;28;20052;-73
2022/08/28 01:47:11;;;;;;;21.67;5.85;;;;;;;14.58;82.29;101776.53;5049251;28;20025;-73
2022/08/28 01:49:37;;;;;;;25.00;6.40;;;;;;;14.57;83.05;101778.41;5034000;28;20079;-73
2022/08/28 01:52:02;;;;;;;19.55;5.63;;;;;;;14.53;82.39;101774.19;5030466;28;20029;-73
2022/08/28 01:54:28;;;;;;;16.25;5.20;;;;;;;14.52;83.36;101780.56;5040149;28;20156;-73
2022/08/28 01:56:53;;;;;;;19.20;5.78;;;;;;;14.49;83.20;101778.97;5047236;28;20043;-73
2022/08/28 01:59:19;;;;;;;19.38;5.72;;;;;;;14.44;83.06;101778.44;5048999;28;20396;-73
2022/08/28 02:01:44;;;;;;;15.18;4.85;;;;;;;14.40;83.28;101773.38;5048652;28;20040;-73
2022/08/28 02:04:10;;;;;;;16.67;5.40;;;;;;;14.36;83.59;101775.44;5034556;28;20037;-73
2022/08/28 02:06:36;;;;;;;16.88;5.45;;;;;;;14.31;83.51;101781.19;5049111;28;20471;-73
2022/08/28 02:09:03;;;;;;;16.45;5.32;;;;;;;14.29;83.84;101777.75;5038213;28;20094;-73
2022/08/28 02:11:29;;;;;;;20.67;5.55;;;;;;;14.26;84.05;101778.00;5041613;28;20040;-73
2022/08/28 02:13:55;;;;;;;18.83;6.30;;;;;;;14.21;84.48;101776.59;5034146;28;20072;-73
2022/08/28 02:16:21;;;;;;;18.92;6.35;;;;;;;14.17;84.68;101781.34;5034135;28;20079;-73
2022/08/28 02:18:47;;;;;;;20.70;6.40;;;;;;;14.11;84.85;101784.50;5045569;28;20028;-73
2022/08/28 02:21:13;;;;;;;18.52;5.82;;;;;;;14.09;84.68;101786.47;5044486;28;20057;-74
2022/08/28 02:23:41;;;;;;;16.58;5.68;;;;;;;14.04;85.00;101796.75;5052376;28;20103;-73
2022/08/28 02:26:07;;;;;;;17.63;6.22;;;;;;;13.99;85.06;101791.69;5052851;28;20062;-73
2022/08/28 02:28:33;;;;;;;20.08;6.28;;;;;;;13.98;85.21;101795.34;5042942;28;20033;-73
2022/08/28 02:30:58;;;;;;;17.60;5.60;;;;;;;13.92;85.15;101793.09;5042142;28;20035;-73
2022/08/28 02:33:24;;;;;;;19.55;6.38;;;;;;;13.90;85.21;101781.56;5051088;28;20035;-73
2022/08/28 02:35:49;;;;;;;20.40;5.53;;;;;;;13.85;85.42;101789.09;5051379;28;20017;-73
2022/08/28 02:38:16;;;;;;;21.58;5.85;;;;;;;13.82;85.22;101790.19;5044015;28;20049;-73
2022/08/28 02:40:41;;;;;;;18.38;6.10;;;;;;;13.77;85.55;101795.06;5034992;28;20105;-74
2022/08/28 02:43:06;;;;;;;18.02;6.45;;;;;;;13.74;85.17;101787.19;5035070;28;20117;-74
2022/08/28 02:45:32;;;;;;;18.38;6.45;;;;;;;13.70;85.79;101791.09;5048850;28;20366;-74
2022/08/28 02:47:57;;;;;;;18.17;6.25;;;;;;;13.67;85.72;101794.00;5045280;28;20426;-74
2022/08/28 02:50:23;;;;;;;20.00;7.18;;;;;;;13.62;85.63;101787.09;5062005;28;20028;-74
2022/08/28 02:52:49;;;;;;;18.23;6.28;;;;;;;13.61;85.90;101789.91;5039041;28;20126;-74
2022/08/28 02:55:16;;;;;;;18.75;6.28;;;;;;;13.55;86.06;101793.03;5038221;28;20031;-74
2022/08/28 02:57:42;;;;;;;16.80;6.18;;;;;;;13.49;85.84;101794.34;5052710;28;20098;-74
2022/08/28 03:00:11;;;;;;;19.17;5.78;;;;;;;13.45;86.14;101787.41;5045070;28;20029;-74
2022/08/28 03:02:37;;;;;;;16.45;4.93;;;;;;;13.40;86.03;101790.44;5050488;28;20059;-74
2022/08/28 03:05:03;;;;;;;18.23;6.30;;;;;;;13.33;86.40;101794.50;5052055;28;20096;-74
2022/08/28 03:07:29;;;;;;;17.35;5.97;;;;;;;13.29;86.53;101791.19;5051344;28;20493;-74
2022/08/28 03:09:55;;;;;;;17.63;6.00;;;;;;;13.26;86.30;101787.81;5050158;28;20071;-74
2022/08/28 03:12:22;;;;;;;17.92;5.63;;;;;;;13.21;86.72;101793.53;5052152;28;20040;-74
2022/08/28 03:14:50;;;;;;;18.58;6.57;;;;;;;13.20;86.95;101797.19;5052427;28;20057;-74
2022/08/28 03:17:15;;;;;;;19.30;5.20;;;;;;;13.17;86.65;101796.56;5036216;28;20371;-74
2022/08/28 03:19:40;;;;;;;19.63;5.90;;;;;;;13.13;87.19;101798.59;5050174;28;20068;-74
2022/08/28 03:22:06;;;;;;;16.83;5.38;;;;;;;13.08;86.99;101795.38;5038412;28;20424;-74
2022/08/28 03:24:32;;;;;;;14.85;5.53;;;;;;;13.07;87.43;101801.72;5050680;28;20024;-74
2022/08/28 03:26:57;;;;;;;16.48;5.85;;;;;;;13.05;87.90;101803.69;5051320;28;20098;-74
2022/08/28 03:29:22;;;;;;;16.63;5.95;;;;;;;13.02;87.52;101809.28;5051041;28;20028;-74
2022/08/28 03:31:47;;;;;;;17.02;5.57;;;;;;;13.02;88.09;101810.13;5048408;28;20036;-74
2022/08/28 03:34:13;;;;;;;21.98;6.78;;;;;;;13.01;88.00;101807.53;5045567;28;20050;-74
2022/08/28 03:36:38;;;;;;;17.40;5.97;;;;;;;12.99;88.16;101809.47;5037991;28;20444;-74
2022/08/28 03:39:05;;;;;;;20.17;6.57;;;;;;;12.96;88.46;101807.88;5039012;28;20063;-74
2022/08/28 03:41:31;;;;;;;17.45;6.25;;;;;;;12.97;88.66;101814.97;5040938;28;20079;-74
2022/08/28 03:43:58;;;;;;;18.75;5.97;;;;;;;12.94;88.61;101818.75;5039358;28;20092;-74
2022/08/28 03:46:26;;;;;;;17.58;5.88;;;;;;;12.93;88.79;101814.31;5042930;28;20111;-74
2022/08/28 03:48:52;;;;;;;21.55;6.82;;;;;;;12.90;88.90;101814.53;5038519;28;20041;-74
2022/08/28 03:51:22;;;;;;;19.10;6.30;;;;;;;12.89;88.80;101817.34;5061264;28;20041;-74
2022/08/28 03:53:48;;;;;;;20.08;6.53;;;;;;;12.88;88.82;101821.00;5041726;28;20075;-74
2022/08/28 03:56:20;;;;;;;19.70;6.80;;;;;;;12.86;88.77;101817.56;5049051;28;20017;-74
2022/08/28 03:58:46;;;;;;;18.58;6.50;;;;;;;12.85;88.92;101822.06;5052195;28;20121;-74
2022/08/28 04:01:11;;;;;;;20.17;6.95;;;;;;;12.82;88.87;101822.28;5051850;28;20116;-74
2022/08/28 04:03:36;;;;;;;22.00;6.20;;;;;;;12.78;88.68;101815.34;5044972;28;20028;-74
2022/08/28 04:06:02;;;;;;;18.98;5.82;;;;;;;12.74;88.79;101817.41;5049570;28;20468;-74
2022/08/28 04:08:28;;;;;;;13.50;5.65;;;;;;;12.73;88.88;101822.91;5032403;28;20039;-74
2022/08/28 04:10:54;;;;;;;21.45;6.45;;;;;;;12.70;89.05;101818.56;5044160;28;20032;-74
2022/08/28 04:13:20;;;;;;;19.45;5.95;;;;;;;12.68;88.77;101819.63;5051913;28;20393;-74
2022/08/28 04:15:58;;;;;;;19.70;6.40;;;;;;;12.67;88.86;101821.47;5049831;28;20067;-74
2022/08/28 04:18:24;;;;;;;19.67;6.07;;;;;;;12.66;88.84;101826.97;5040852;28;20411;-74
2022/08/28 04:21:08;;;;;;;18.10;5.60;;;;;;;12.64;88.81;101813.59;5051365;28;20342;-74
2022/08/28 04:23:35;;;;;;;18.85;6.30;;;;;;;12.62;88.88;101817.34;5039626;28;20420;-74
2022/08/28 04:26:04;;;;;;;18.35;6.22;;;;;;;12.59;88.60;101821.09;5047013;28;20032;-74
2022/08/28 04:28:31;;;;;;;16.08;5.55;;;;;;;12.57;88.74;101823.91;5050845;28;20520;-72
2022/08/28 04:30:56;;;;;;;21.45;6.88;;;;;;;12.53;88.92;101817.00;5049716;28;20025;-72
2022/08/28 04:33:23;;;;;;;20.85;7.30;;;;;;;12.52;89.10;101826.06;5039683;28;20041;-72
2022/08/28 04:35:49;;;;;;;17.70;6.03;;;;;;;12.47;89.07;101830.88;5041540;28;20037;-72
2022/08/28 04:38:14;;;;;;;21.58;6.68;;;;;;;12.46;89.16;101831.88;5043716;28;20441;-72
2022/08/28 04:40:40;;;;;;;20.73;6.18;;;;;;;12.44;89.63;101833.78;5044849;28;20037;-73
2022/08/28 04:43:06;;;;;;;20.67;6.30;;;;;;;12.41;89.58;101832.13;5048690;28;20464;-73
2022/08/28 04:45:32;;;;;;;19.20;6.90;;;;;;;12.39;89.56;101823.28;5042052;28;20025;-73
2022/08/28 04:47:57;;;;;;;17.48;5.93;;;;;;;12.39;89.77;101828.69;5047387;28;20108;-73
2022/08/28 04:50:22;;;;;;;18.02;6.13;;;;;;;12.41;90.06;101839.38;5043001;28;20025;-73
2022/08/28 04:52:49;;;;;;;23.20;6.32;;;;;;;12.40;89.58;101841.22;5034580;28;20120;-73
2022/08/28 04:55:15;;;;;;;23.42;6.82;;;;;;;12.40;89.78;101837.63;5038254;28;20061;-73
2022/08/28 04:57:40;;;;;;;18.02;6.50;;;;;;;12.39;89.55;101838.63;5042681;28;20469;-73
2022/08/28 05:00:07;;;;;;;18.10;6.00;;;;;;;12.37;89.55;101838.72;5032950;28;20025;-73
2022/08/28 05:02:33;;;;;;;18.70;5.65;;;;;;;12.37;89.49;101843.22;5047517;28;20121;-73
2022/08/28 05:04:58;;;;;;;16.15;6.43;;;;;;;12.34;89.27;101844.31;5038079;28;20056;-73
2022/08/28 05:07:23;;;;;;;16.77;5.40;;;;;;;12.34;89.23;101847.00;5050302;28;20040;-73
2022/08/28 05:09:52;;;;;;;18.02;5.97;;;;;;;12.31;89.67;101844.47;5050953;28;20388;-73
2022/08/28 05:12:18;;;;;;;20.08;6.03;;;;;;;12.30;89.69;101852.69;5040043;28;20033;-73
2022/08/28 05:14:44;;;;;;;18.63;6.38;;;;;;;12.30;90.08;101856.25;5041479;28;20052;-73
2022/08/28 05:17:11;;;;;;;16.60;5.78;;;;;;;12.30;89.81;101858.94;5047052;28;20029;-73
2022/08/28 05:19:36;;;;;;;15.63;5.50;;;;;;;12.29;90.23;101857.22;5030896;28;20044;-73
2022/08/28 05:22:02;;;;;;;18.85;5.95;;;;;;;12.28;90.34;101858.16;5050734;28;20020;-73
2022/08/28 05:24:27;;;;;;;17.20;6.35;;;;;;;12.30;90.75;101858.06;5047866;28;20029;-73
2022/08/28 05:26:52;;;;;;;16.92;5.70;;;;;;;12.28;90.41;101860.88;5036163;28;20047;-73
2022/08/28 05:29:18;;;;;;;17.85;5.65;;;;;;;12.29;90.89;101864.44;5039853;28;20036;-73
2022/08/28 05:31:43;;;;;;;19.23;6.32;;;;;;;12.29;90.45;101869.84;5045532;28;20029;-73
2022/08/28 05:34:09;;;;;;;18.40;5.95;;;;;;;12.30;90.60;101868.84;5047112;28;20061;-73
2022/08/28 05:36:36;;;;;;;20.00;6.10;;;;;;;12.30;90.51;101867.03;5045839;28;20029;-73
2022/08/28 05:39:05;;;;;;;19.92;5.60;;;;;;;12.29;90.82;101873.38;5049080;28;20021;-73
2022/08/28 05:41:31;;;;;;;;;;;;;;;12.37;88.79;101870.19;5038525;28;20037;-73
2022/08/28 05:44:03;;;;;;;18.02;5.43;;;;;;;12.34;90.60;101878.47;5033726;28;20034;-73
2022/08/28 05:46:29;;;;;;;17.65;6.20;;;;;;;12.34;90.96;101871.28;5040512;28;20017;-73
2022/08/28 05:48:56;;;;;;;18.08;6.30;;;;;;;12.37;90.96;101875.56;5038942;28;20029;-73
2022/08/28 05:51:23;;;;;;;20.52;6.75;;;;;;;12.42;91.21;101876.16;5033202;28;20392;-73
2022/08/28 05:53:49;;;;;;;21.15;6.57;;;;;;;12.44;91.21;101879.59;5039685;28;20025;-73
2022/08/28 05:56:17;;;;;;;23.92;7.03;;;;;;;12.48;91.38;101880.28;5043561;28;20098;-73
2022/08/28 05:58:43;;;;;;;20.02;7.00;;;;;;;12.53;91.70;101879.03;5048236;28;20469;-73
2022/08/28 06:01:16;;;;;;;20.58;6.45;;;;;;;12.61;92.06;101877.63;5041549;28;20028;-73
2022/08/28 06:03:50;;;;;;;21.30;6.85;;;;;;;12.67;92.20;101886.22;5049445;28;20033;-73
2022/08/28 06:06:15;;;;;;;18.98;6.57;;;;;;;12.75;92.84;101886.56;5043049;28;20044;-73
2022/08/28 06:08:40;;;;;;;23.35;6.22;;;;;;;12.82;92.72;101888.88;5045011;28;20025;-73
2022/08/28 06:11:06;;;;;;;20.92;6.93;;;;;;;12.91;92.95;101890.94;5049084;28;20048;-73
2022/08/28 06:13:32;;;;;;;18.45;6.05;;;;;;;12.98;92.94;101891.41;5047285;28;20045;-73
2022/08/28 06:15:58;;;;;;;17.98;6.00;;;;;;;13.05;93.47;101888.19;5031244;28;20044;-73
2022/08/28 06:18:25;;;;;;;23.65;7.10;;;;;;;13.13;93.53;101890.34;5030799;28;20021;-73
2022/08/28 06:20:50;;;;;;;19.15;6.28;;;;;;;13.22;93.64;101889.75;5033203;28;20096;-73
2022/08/28 06:23:17;;;;;;;21.92;6.35;;;;;;;13.29;93.19;101888.38;5046318;28;20333;-73
2022/08/28 06:25:45;;;;;;;17.63;5.88;;;;;;;13.38;93.08;101888.72;5036629;28;20132;-73
2022/08/28 06:28:12;;;;;;;18.27;6.45;;;;;;;13.46;93.31;101891.78;5047175;28;20047;-73
2022/08/28 06:30:39;;;;;;;19.60;5.82;;;;;;;13.53;92.81;101887.69;5041768;28;20029;-73
2022/08/28 06:33:05;;;;;;;19.48;5.75;;;;;;;13.61;92.54;101896.09;5038716;28;20032;-73
2022/08/28 06:35:31;;;;;;;17.95;6.05;;;;;;;13.69;91.91;101892.88;5038743;28;20053;-72
2022/08/28 06:37:57;;;;;;;21.70;5.97;;;;;;;13.77;92.50;101900.44;5038483;28;20049;-73
2022/08/28 06:40:24;;;;;;;16.10;4.93;;;;;;;13.86;90.64;101907.03;5038941;28;20072;-73
2022/08/28 06:42:50;;;;;;;23.85;6.13;;;;;;;13.97;90.46;101909.84;5041989;28;20507;-73
2022/08/28 06:45:15;;;;;;;17.05;5.10;;;;;;;14.06;90.52;101911.03;5048572;28;20044;-73
2022/08/28 06:47:40;;;;;;;19.02;5.57;;;;;;;14.14;89.83;101914.94;5033753;28;20124;-73
2022/08/28 06:50:06;;;;;;;20.92;6.13;;;;;;;14.24;90.19;101909.72;5030118;28;20048;-73
2022/08/28 06:52:31;;;;;;;19.17;6.25;;;;;;;14.31;89.62;101913.69;5037454;28;20055;-73
2022/08/28 06:54:57;;;;;;;21.90;5.20;;;;;;;14.39;88.69;101909.56;5035511;28;20033;-73
2022/08/28 06:57:24;;;;;;;18.70;5.82;;;;;;;14.46;88.00;101916.28;5049486;28;20025;-73
2022/08/28 06:59:50;;;;;;;21.77;5.80;;;;;;;14.54;87.20;101911.19;5046791;28;20763;-73
2022/08/28 07:02:15;;;;;;;16.27;4.57;;;;;;;14.59;86.93;101911.69;5042140;28;20031;-73
2022/08/28 07:04:40;;;;;;;21.05;5.97;;;;;;;14.66;86.71;101920.25;5041704;28;20021;-73
2022/08/28 07:07:06;;;;;;;20.48;5.90;;;;;;;14.71;86.41;101912.66;5042176;28;20033;-73
2022/08/28 07:09:31;;;;;;;20.27;5.53;;;;;;;14.80;87.01;101913.81;5038437;28;20033;-73
2022/08/28 07:11:57;;;;;;;18.85;5.75;;;;;;;14.88;85.86;101910.56;5046184;28;20392;-73
2022/08/28 07:14:22;;;;;;;16.42;4.88;;;;;;;14.95;86.40;101906.38;5050637;28;20033;-73
2022/08/28 07:16:48;;;;;;;17.80;4.90;;;;;;;15.02;86.21;101910.38;5049133;28;20028;-73
2022/08/28 07:19:13;;;;;;;16.77;4.95;;;;;;;15.08;85.46;101914.47;5041589;28;20063;-73
2022/08/28 07:21:41;;;;;;;13.85;3.92;;;;;;;15.14;84.63;101908.56;5050649;28;20165;-73
2022/08/28 07:24:09;;;;;;;18.85;4.22;;;;;;;15.22;84.52;101916.13;5049217;28;20129;-73
2022/08/28 07:26:35;;;;;;;18.27;4.78;;;;;;;15.28;84.19;101915.66;5039810;28;20710;-73
2022/08/28 07:29:02;;;;;;;14.95;4.68;;;;;;;15.33;83.89;101919.75;5035295;28;20502;-73
2022/08/28 07:31:28;;;;;;;16.23;3.83;;;;;;;15.40;83.01;101919.28;5048551;28;20457;-73
2022/08/28 07:33:54;;;;;;;16.67;4.78;;;;;;;15.45;82.88;101925.22;5033749;28;20072;-73
2022/08/28 07:36:23;;;;;;;17.30;4.85;;;;;;;15.52;82.85;101929.16;5055622;28;20049;-73
2022/08/28 07:38:49;;;;;;;20.92;4.38;;;;;;;15.58;82.56;101939.53;5038727;28;20092;-73
2022/08/28 07:41:27;;;;;;;19.02;4.47;;;;;;;15.64;82.17;101935.50;5046447;28;20101;-73
2022/08/28 07:46:37;;;;;;;18.45;5.03;;;;;;;15.76;81.13;101936.38;5033820;28;20080;-73
2022/08/28 07:49:04;;;;;;;17.25;4.40;;;;;;;15.83;81.23;101935.81;5034036;28;20044;-73
2022/08/28 07:51:30;;;;;;;14.95;3.17;;;;;;;15.89;80.89;101934.47;5043817;28;20439;-73
2022/08/28 07:53:58;;;;;;;13.48;3.67;;;;;;;15.96;81.27;101940.25;5045599;28;20140;-73
2022/08/28 07:56:26;;;;;;;13.60;3.42;;;;;;;15.99;80.42;101937.28;5041392;28;20498;-73
2022/08/28 07:58:51;;;;;;;12.77;3.45;;;;;;;16.06;80.03;101942.13;5051295;28;20481;-73
2022/08/28 08:01:17;;;;;;;16.23;3.15;;;;;;;16.12;79.20;101939.91;5049275;28;20024;-73
2022/08/28 08:03:43;;;;;;;13.48;3.35;;;;;;;16.18;79.64;101944.84;5048037;28;20040;-73
2022/08/28 08:06:09;;;;;;;13.27;3.53;;;;;;;16.22;79.04;101949.91;5035545;28;20119;-73
2022/08/28 08:08:36;;;;;;;15.75;3.88;;;;;;;16.27;78.71;101951.38;5050647;28;20029;-73
2022/08/28 08:11:08;;;;;;;14.57;3.58;;;;;;;16.33;79.39;101948.19;5050138;28;20035;-73
2022/08/28 08:13:35;;;;;;;20.50;4.05;;;;;;;16.35;77.55;101944.34;5051732;28;20033;-73
2022/08/28 08:16:11;;;;;;;13.32;3.47;;;;;;;16.40;78.99;101944.84;5041116;28;20049;-73
2022/08/28 08:18:38;;;;;;;12.65;3.03;;;;;;;16.46;77.37;101945.31;5039717;28;20052;-73
2022/08/28 08:21:06;;;;;;;16.00;3.72;;;;;;;16.55;76.24;101953.59;5039224;28;20106;-73
2022/08/28 08:23:37;;;;;;;10.55;3.47;;;;;;;16.63;75.89;101943.97;5051591;28;20389;-73
2022/08/28 08:26:05;;;;;;;10.35;3.03;;;;;;;16.68;77.09;101958.91;5044098;28;20409;-73
2022/08/28 08:28:33;;;;;;;12.73;3.67;;;;;;;16.70;75.06;101954.19;5043861;28;20029;-73
2022/08/28 08:31:34;;;;;;;14.05;3.63;;;;;;;16.75;76.03;101968.25;5047063;28;20453;-73
2022/08/28 08:34:02;;;;;;;11.18;3.28;;;;;;;16.78;73.56;101964.44;5050182;28;20086;-73
2022/08/28 08:36:29;;;;;;;9.18;3.13;;;;;;;16.85;74.07;101960.25;5064217;28;20450;-73
2022/08/28 08:38:55;;;;;;;11.48;3.25;;;;;;;16.91;73.05;101969.72;5060818;28;20033;-73
2022/08/28 08:41:27;;;;;;;11.63;2.80;;;;;;;16.94;72.62;101956.78;5062790;28;20169;-73
2022/08/28 08:44:27;;;;;;;16.77;3.33;;;;;;;17.02;74.29;101955.28;5059459;28;20028;-73
2022/08/28 08:47:01;;;;;;;9.30;2.90;;;;;;;17.03;71.45;101955.16;5062262;28;20040;-73
2022/08/28 08:49:33;;;;;;;12.18;3.25;;;;;;;17.04;73.54;101954.19;5065043;28;20368;-73
2022/08/28 08:52:30;;;;;;;11.82;3.10;;;;;;;17.07;71.63;101961.19;5063907;28;20044;-73
2022/08/28 08:55:42;;;;;;;15.27;3.33;;;;;;;17.12;72.20;101954.38;5066898;28;20048;-73
2022/08/28 08:58:12;;;;;;;10.60;2.67;;;;;;;17.20;70.03;101955.59;4997156;28;20040;-73
2022/08/28 09:01:02;;;;;;;10.38;2.90;;;;;;;17.24;71.22;101947.03;4986464;28;20049;-73
2022/08/28 09:03:51;;;;;;;11.38;3.05;;;;;;;17.29;71.42;101947.53;4988931;28;20037;-73
2022/08/28 09:06:38;;;;;;;10.82;3.05;;;;;;;17.36;71.40;101944.28;5007874;28;20184;-73
2022/08/28 09:09:11;;;;;;;10.85;3.00;;;;;;;17.41;69.53;101942.91;5003697;28;20073;-73
2022/08/28 09:11:53;;;;;;;8.60;2.33;;;;;;;17.51;67.99;101947.56;4993063;28;20026;-73
2022/08/28 09:14:30;;;;;;;9.20;2.20;;;;;;;17.61;68.58;101959.38;4997101;28;20038;-73
2022/08/28 09:16:56;;;;;;;9.57;2.67;;;;;;;17.69;67.46;101955.97;4998644;28;20117;-73
2022/08/28 09:19:22;;;;;;;7.95;2.72;;;;;;;17.75;66.96;101956.31;4992627;28;20042;-73
2022/08/28 09:21:49;;;;;;;8.23;2.80;;;;;;;17.85;68.62;101960.97;4992696;28;20026;-73
2022/08/28 09:24:34;;;;;;;10.02;2.55;;;;;;;17.93;66.85;101958.47;4997267;28;20038;-73
2022/08/28 09:27:04;;;;;;;13.07;2.83;;;;;;;17.99;69.67;101949.78;4985775;28;20056;-73
2022/08/28 09:29:43;;;;;;;11.38;3.10;;;;;;;18.05;69.35;101962.84;5000393;28;21376;-73
2022/08/28 09:32:50;;;;;;;12.85;3.08;;;;;;;18.12;67.40;101949.56;5012899;28;20076;-73
2022/08/28 09:35:24;;;;;;;11.75;2.60;;;;;;;18.17;65.90;101950.88;5045392;28;20522;-73
2022/08/28 09:37:50;;;;;;;11.43;2.70;;;;;;;18.26;65.56;101948.31;5034432;28;20061;-73
2022/08/28 09:43:27;;;;;;;8.80;2.60;;;;;;;18.41;65.38;101951.56;5038198;28;20170;-73
2022/08/28 09:46:01;;;;;;;8.82;2.75;;;;;;;18.48;66.44;101959.03;5037902;28;20025;-73
2022/08/28 09:48:42;;;;;;;13.98;2.95;;;;;;;18.51;63.86;101953.31;5034646;28;20033;-73
2022/08/28 09:51:28;;;;;;;9.38;3.08;;;;;;;18.58;66.28;101953.66;5040057;28;20037;-73
2022/08/28 09:53:53;;;;;;;9.73;2.47;;;;;;;18.71;65.96;101950.66;5040550;28;20076;-73
2022/08/28 09:56:35;;;;;;;10.93;3.10;;;;;;;18.75;65.98;101945.81;5034228;28;20091;-73
2022/08/28 09:59:15;;;;;;;10.95;2.63;;;;;;;18.79;63.28;101950.81;5034194;28;20029;-73
2022/08/28 10:01:41;;;;;;;8.85;2.60;;;;;;;18.82;61.39;101956.00;5042534;28;20033;-73
2022/08/28 10:04:32;;;;;;;10.30;2.97;;;;;;;18.88;62.39;101949.16;5031700;28;20033;-73
2022/08/28 10:07:07;;;;;;;7.53;2.40;;;;;;;18.96;63.86;101957.50;5030450;28;20056;-73
2022/08/28 10:09:44;;;;;;;10.20;2.58;;;;;;;18.97;62.53;101952.91;5029653;28;20030;-73
2022/08/28 10:12:35;;;;;;;9.50;2.47;;;;;;;19.02;63.98;101950.63;5044493;28;20457;-74
2022/08/28 10:15:17;;;;;;;6.30;2.22;;;;;;;19.07;61.99;101953.78;5037582;28;20477;-74
2022/08/28 10:18:02;;;;;;;13.90;2.50;;;;;;;19.09;62.86;101949.03;5046661;28;20090;-74
2022/08/28 10:20:38;;;;;;;8.85;2.58;;;;;;;19.07;62.04;101953.78;5044338;28;20087;-75
2022/08/28 10:23:26;;;;;;;13.32;3.17;;;;;;;19.03;63.41;101947.75;5030471;28;20370;-75
2022/08/28 10:26:11;;;;;;;10.27;2.50;;;;;;;19.01;62.23;101951.63;5030293;28;20021;-75
2022/08/28 10:28:47;;;;;;;12.27;2.65;;;;;;;18.99;61.58;101953.59;5030168;28;20068;-74
2022/08/28 10:31:35;;;;;;;7.72;2.45;;;;;;;18.99;61.20;101950.88;5038229;28;20039;-73
2022/08/28 10:34:11;;;;;;;8.25;2.63;;;;;;;19.02;62.75;101948.75;5046216;28;20076;-73
2022/08/28 10:36:37;;;;;;;12.63;2.58;;;;;;;19.05;59.51;101950.34;5037850;28;20129;-73
2022/08/28 10:39:11;;;;;;;10.52;2.67;;;;;;;19.12;60.26;101945.16;5041579;28;20032;-73
2022/08/28 10:41:45;;;;;;;10.93;2.60;;;;;;;19.18;62.64;101955.50;5052518;28;20035;-74
2022/08/28 10:44:18;;;;;;;9.48;2.75;;;;;;;19.23;63.44;101946.91;5051967;28;20024;-74
2022/08/28 10:46:50;;;;;;;11.05;2.58;;;;;;;19.33;61.94;101939.59;5053774;28;20099;-74
2022/08/28 10:49:36;;;;;;;7.53;2.30;;;;;;;19.36;62.97;101940.16;5050787;28;20087;-74
2022/08/28 10:52:06;;;;;;;9.07;2.88;;;;;;;19.47;60.98;101947.31;5053684;28;20048;-74
2022/08/28 10:54:50;;;;;;;9.15;2.70;;;;;;;19.56;62.12;101951.94;5053716;28;20064;-74
2022/08/28 10:57:34;;;;;;;15.75;2.97;;;;;;;19.67;60.46;101952.78;5053603;28;20047;-73
2022/08/28 11:00:08;;;;;;;9.65;2.90;;;;;;;19.70;59.75;101950.59;5052409;28;20035;-73
2022/08/28 11:02:35;;;;;;;11.02;3.22;;;;;;;19.67;60.64;101950.91;5041237;28;20124;-73
2022/08/28 11:05:01;;;;;;;9.38;2.60;;;;;;;19.65;60.40;101946.59;5033657;28;20136;-73
2022/08/28 11:07:38;;;;;;;7.50;2.35;;;;;;;19.63;60.34;101952.19;5033667;28;20027;-73
2022/08/28 11:10:22;;;;;;;10.32;2.63;;;;;;;19.66;61.35;101956.50;5033632;28;20022;-73
2022/08/28 11:12:51;;;;;;;7.63;2.58;;;;;;;19.67;59.46;101947.31;5032145;28;20036;-73
2022/08/28 11:15:41;;;;;;;12.15;3.40;;;;;;;19.72;59.89;101953.19;5033385;28;20033;-73
2022/08/28 11:18:15;;;;;;;7.88;2.72;;;;;;;19.84;59.67;101956.66;5035385;28;20045;-73
2022/08/28 11:20:53;;;;;;;6.55;2.22;;;;;;;19.89;58.91;101955.22;5049679;28;20040;-74
2022/08/28 11:23:23;;;;;;;10.27;2.67;;;;;;;20.02;58.45;101943.97;5051904;28;20357;-74
2022/08/28 11:25:53;;;;;;;9.10;2.80;;;;;;;20.10;60.51;101945.97;5053267;28;20021;-74
2022/08/28 11:28:24;;;;;;;8.30;2.40;;;;;;;20.17;58.27;101943.50;5050698;28;20025;-74
2022/08/28 11:31:05;;;;;;;8.95;2.40;;;;;;;20.23;59.02;101948.38;5049931;28;20032;-74
2022/08/28 11:33:47;;;;;;;7.97;2.78;;;;;;;20.29;57.57;101952.38;5038476;28;20742;-74
2022/08/28 11:36:18;;;;;;;10.80;2.75;;;;;;;20.26;57.17;101956.25;5046240;28;20437;-69